createdAt,value
2022-09-06T00:02:11.625Z,67.20
2022-09-06T00:06:01.001Z,67.65
2022-09-06T00:09:50.935Z,68.30
2022-09-06T00:13:41.404Z,69.63
2022-09-06T00:17:30.913Z,69.87
2022-09-06T00:21:20.507Z,70.61
2022-09-06T00:25:10.030Z,70.65
2022-09-06T00:28:59.744Z,71.38
2022-09-06T00:32:48.971Z,71.40
2022-09-06T00:36:40.832Z,71.85
2022-09-06T00:40:30.354Z,72.31
2022-09-06T00:44:20.239Z,72.61
2022-09-06T00:48:09.634Z,73.25
2022-09-06T00:51:58.742Z,73.61
2022-09-06T00:55:48.433Z,73.84
2022-09-06T00:59:37.633Z,74.13
2022-09-06T01:03:26.885Z,74.55
2022-09-06T01:07:19.520Z,75.28
2022-09-06T01:11:27.000Z,76.29
2022-09-06T01:15:21.177Z,76.78
2022-09-06T01:19:38.607Z,77.31
2022-09-06T01:23:43.019Z,78.20
2022-09-06T01:27:33.942Z,78.46
2022-09-06T01:31:23.087Z,79.05
2022-09-06T01:35:12.458Z,79.78
2022-09-06T01:39:02.384Z,81.09
2022-09-06T01:42:55.232Z,81.84
2022-09-06T01:46:42.591Z,82.80
2022-09-06T01:50:55.698Z,84.10
2022-09-06T01:55:06.310Z,86.84
2022-09-06T01:59:10.376Z,88.26
2022-09-06T02:03:02.838Z,88.73
2022-09-06T02:06:54.678Z,89.20
2022-09-06T02:10:44.318Z,89.73
2022-09-06T02:14:36.939Z,90.58
2022-09-06T02:18:26.157Z,91.10
2022-09-06T02:22:15.823Z,91.44
2022-09-06T02:26:07.998Z,92.29
2022-09-06T02:29:57.892Z,93.14
2022-09-06T02:33:49.615Z,93.68
2022-09-06T02:37:38.788Z,93.82
2022-09-06T02:41:28.204Z,94.07
2022-09-06T02:45:17.888Z,94.31
2022-09-06T02:49:07.997Z,94.58
2022-09-06T02:52:57.245Z,94.58
2022-09-06T02:56:51.547Z,96.13
2022-09-06T03:00:41.603Z,97.53
2022-09-06T03:04:31.555Z,98.16
2022-09-06T03:08:21.873Z,98.35
2022-09-06T03:12:11.202Z,97.33
2022-09-06T03:16:01.170Z,98.11
2022-09-06T03:19:51.513Z,98.84
2022-09-06T03:23:40.861Z,99.48
2022-09-06T03:27:30.191Z,99.15
2022-09-06T03:31:19.501Z,97.70
2022-09-06T03:35:09.205Z,97.99
2022-09-06T03:38:59.038Z,99.18
2022-09-06T03:42:48.653Z,99.90
2022-09-06T03:46:37.634Z,100.00
2022-09-06T03:50:27.199Z,100.00
2022-09-06T03:54:16.520Z,100.00
2022-09-06T03:58:06.195Z,100.00
2022-09-06T04:02:01.512Z,100.00
2022-09-06T04:05:51.439Z,100.00
2022-09-06T04:09:41.775Z,100.00
2022-09-06T04:13:35.627Z,100.00
2022-09-06T04:17:24.847Z,100.00
2022-09-06T04:21:14.573Z,100.00
2022-09-06T04:25:04.219Z,100.00
2022-09-06T04:28:53.631Z,100.00
2022-09-06T04:32:43.114Z,100.00
2022-09-06T04:36:33.384Z,100.00
2022-09-06T04:40:24.309Z,100.00
2022-09-06T04:44:14.766Z,100.00
2022-09-06T04:48:04.834Z,99.94
2022-09-06T04:51:54.647Z,100.00
2022-09-06T04:55:44.098Z,100.00
2022-09-06T04:59:33.294Z,100.00
2022-09-06T05:03:23.159Z,99.49
2022-09-06T05:07:15.359Z,97.51
2022-09-06T05:11:05.023Z,95.94
2022-09-06T05:14:55.443Z,94.94
2022-09-06T05:18:44.874Z,93.54
2022-09-06T05:22:33.778Z,90.99
2022-09-06T05:26:23.743Z,91.78
2022-09-06T05:30:12.852Z,91.46
2022-09-06T05:34:03.093Z,93.09
2022-09-06T05:37:53.290Z,91.83
2022-09-06T05:41:42.465Z,90.26
2022-09-06T05:45:31.978Z,89.10
2022-09-06T05:49:21.469Z,86.74
2022-09-06T05:53:12.151Z,85.52
2022-09-06T05:57:01.462Z,83.47
2022-09-06T06:00:51.010Z,83.07
2022-09-06T06:04:40.453Z,82.93
2022-09-06T06:08:29.837Z,81.95
2022-09-06T06:12:19.619Z,81.55
2022-09-06T06:16:09.491Z,80.86
2022-09-06T06:20:00.080Z,76.85
2022-09-06T06:23:51.230Z,73.69
2022-09-06T06:27:48.284Z,75.71
2022-09-06T06:31:45.906Z,74.72
2022-09-06T06:35:39.578Z,73.16
2022-09-06T06:39:32.901Z,72.39
2022-09-06T06:43:22.053Z,71.76
2022-09-06T06:47:14.096Z,71.70
2022-09-06T06:51:03.371Z,69.91
2022-09-06T06:54:53.001Z,68.43
2022-09-06T06:58:42.761Z,68.67
2022-09-06T07:02:32.532Z,68.09
2022-09-06T07:06:21.840Z,67.98
2022-09-06T07:14:20.227Z,56.70
2022-09-06T07:18:09.476Z,53.86
2022-09-06T07:24:44.474Z,51.04
2022-09-06T07:28:10.195Z,50.47
2022-09-06T07:35:47.763Z,48.45
2022-09-06T07:39:36.876Z,46.82
2022-09-06T07:43:25.793Z,46.79
2022-09-06T07:51:17.963Z,49.07
2022-09-06T07:55:08.287Z,48.92
2022-09-06T07:57:50.259Z,48.11
2022-09-06T08:01:22.136Z,48.16
2022-09-06T08:09:06.442Z,46.50
2022-09-06T08:12:32.167Z,47.00
2022-09-06T08:15:42.279Z,47.11
2022-09-06T08:19:11.246Z,46.74
2022-09-06T08:22:50.959Z,45.98
2022-09-06T08:26:40.621Z,45.79
2022-09-06T08:30:12.966Z,45.39
2022-09-06T08:33:18.072Z,44.89
2022-09-06T08:37:07.705Z,44.17
2022-09-06T08:40:56.676Z,44.00
2022-09-06T08:48:42.968Z,43.28
2022-09-06T08:52:41.818Z,43.43
2022-09-06T08:56:45.038Z,42.79
2022-09-06T09:00:33.966Z,42.13
2022-09-06T09:04:23.195Z,42.47
2022-09-06T09:08:20.963Z,41.55
2022-09-06T09:12:10.110Z,41.73
2022-09-06T09:15:58.970Z,41.04
2022-09-06T09:19:48.243Z,40.37
2022-09-06T09:23:37.410Z,40.88
2022-09-06T09:27:35.087Z,40.97
2022-09-06T09:31:24.175Z,40.90
2022-09-06T09:35:15.754Z,40.08
2022-09-06T09:39:10.486Z,39.08
2022-09-06T09:43:11.279Z,38.57
2022-09-06T09:47:15.314Z,38.07
2022-09-06T09:51:04.091Z,37.46
2022-09-06T09:54:57.984Z,36.40
2022-09-06T09:58:46.757Z,36.54
2022-09-06T10:02:19.353Z,36.26
2022-09-06T10:06:04.668Z,36.38
2022-09-06T10:09:53.675Z,35.86
2022-09-06T10:13:48.162Z,36.90
2022-09-06T10:17:42.940Z,35.65
2022-09-06T10:21:43.807Z,35.11
2022-09-06T10:25:25.624Z,35.46
2022-09-06T10:29:19.441Z,34.41
2022-09-06T10:33:08.530Z,35.51
2022-09-06T10:36:57.502Z,35.18
2022-09-06T10:40:46.536Z,34.68
2022-09-06T10:44:33.817Z,34.37
2022-09-06T10:48:35.267Z,33.10
2022-09-06T10:52:42.334Z,33.86
2022-09-06T10:56:31.236Z,33.92
2022-09-06T11:00:28.799Z,33.47
2022-09-06T11:04:13.947Z,33.35
2022-09-06T11:12:23.509Z,33.24
2022-09-06T11:16:06.738Z,33.98
2022-09-06T11:19:55.754Z,33.19
2022-09-06T11:23:42.715Z,32.89
2022-09-06T11:27:32.765Z,32.89
2022-09-06T11:35:39.224Z,33.90
2022-09-06T11:43:39.004Z,33.47
2022-09-06T11:47:34.600Z,34.34
2022-09-06T11:51:39.569Z,34.53
2022-09-06T11:55:31.885Z,34.05
2022-09-06T11:59:30.774Z,32.98
2022-09-06T12:02:45.185Z,32.43
2022-09-06T12:06:33.978Z,32.06
2022-09-06T12:10:23.931Z,31.63
2022-09-06T12:14:15.294Z,32.17
2022-09-06T12:18:04.569Z,33.56
2022-09-06T12:21:56.344Z,33.18
2022-09-06T12:25:45.606Z,33.10
2022-09-06T12:29:31.974Z,32.97
2022-09-06T12:33:14.126Z,32.78
2022-09-06T12:37:34.436Z,32.67
2022-09-06T12:41:16.431Z,33.59
2022-09-06T12:44:46.536Z,33.84
2022-09-06T12:48:46.301Z,33.30
2022-09-06T12:52:46.061Z,33.05
2022-09-06T12:56:25.776Z,32.73
2022-09-06T12:59:39.724Z,32.24
2022-09-06T13:03:03.830Z,32.89
2022-09-06T13:06:48.893Z,33.15
2022-09-06T13:10:43.285Z,33.56
2022-09-06T13:14:33.625Z,33.69
2022-09-06T13:18:16.824Z,33.49
2022-09-06T13:22:12.778Z,33.20
2022-09-06T13:26:02.622Z,33.44
2022-09-06T13:29:54.578Z,33.40
2022-09-06T13:33:46.848Z,33.18
2022-09-06T13:37:41.822Z,33.30
2022-09-06T13:41:36.851Z,33.42
2022-09-06T13:45:28.893Z,34.07
2022-09-06T13:49:18.359Z,33.95
2022-09-06T13:53:07.567Z,33.82
2022-09-06T13:56:57.077Z,34.35
2022-09-06T14:00:21.119Z,34.66
2022-09-06T14:04:12.885Z,34.56
2022-09-06T14:07:56.612Z,34.25
2022-09-06T14:11:48.278Z,34.27
2022-09-06T14:15:27.836Z,34.50
2022-09-06T14:19:16.142Z,34.49
2022-09-06T14:22:46.174Z,34.16
2022-09-06T14:26:15.180Z,34.06
2022-09-06T14:29:36.268Z,34.06
2022-09-06T14:33:25.924Z,35.03
2022-09-06T14:37:15.225Z,34.75
2022-09-06T14:40:56.638Z,35.36
2022-09-06T14:44:39.034Z,35.07
2022-09-06T14:48:12.207Z,35.91
2022-09-06T14:52:01.407Z,36.17
2022-09-06T14:55:46.603Z,36.29
2022-09-06T14:59:35.754Z,36.24
2022-09-06T15:03:22.835Z,36.64
2022-09-06T15:07:12.162Z,36.82
2022-09-06T15:11:01.472Z,37.14
2022-09-06T15:14:57.520Z,37.35
2022-09-06T15:18:40.758Z,37.44
2022-09-06T15:22:31.355Z,37.62
2022-09-06T15:25:58.494Z,37.91
2022-09-06T15:29:30.415Z,38.06
2022-09-06T15:33:01.663Z,38.30
2022-09-06T15:36:12.078Z,38.30
2022-09-06T15:39:57.151Z,38.32
2022-09-06T15:43:46.767Z,38.42
2022-09-06T15:47:38.249Z,38.64
2022-09-06T15:50:50.910Z,38.94
2022-09-06T15:54:23.355Z,38.79
2022-09-06T15:58:13.845Z,38.92
2022-09-06T16:01:44.474Z,39.24
2022-09-06T16:09:40.081Z,39.67
2022-09-06T16:12:55.190Z,40.05
2022-09-06T16:16:24.477Z,40.03
2022-09-06T16:19:50.319Z,40.31
2022-09-06T16:23:24.775Z,40.74
2022-09-06T16:27:14.220Z,41.14
2022-09-06T16:30:53.940Z,41.22
2022-09-06T16:34:24.574Z,41.52
2022-09-06T16:37:54.184Z,41.62
2022-09-06T16:41:29.183Z,42.04
2022-09-06T16:45:05.349Z,42.33
2022-09-06T16:48:37.780Z,42.60
2022-09-06T16:51:22.354Z,42.66
2022-09-06T16:54:24.611Z,43.11
2022-09-06T16:57:43.235Z,43.23
2022-09-06T17:00:57.501Z,43.60
2022-09-06T17:04:17.972Z,44.04
2022-09-06T17:07:47.161Z,44.44
2022-09-06T17:10:50.622Z,44.62
2022-09-06T17:14:21.192Z,44.70
2022-09-06T17:17:15.461Z,44.98
2022-09-06T17:21:05.229Z,45.05
2022-09-06T17:24:37.775Z,45.41
2022-09-06T17:27:58.209Z,46.02
2022-09-06T17:31:26.834Z,46.35
2022-09-06T17:35:08.887Z,46.75
2022-09-06T17:38:22.587Z,47.19
2022-09-06T17:42:17.933Z,47.35
2022-09-06T17:45:41.849Z,47.50
2022-09-06T17:48:54.296Z,47.72
2022-09-06T17:51:51.772Z,48.05
2022-09-06T17:55:00.833Z,48.41
2022-09-06T17:58:15.349Z,48.36
2022-09-06T18:01:22.797Z,48.68
2022-09-06T18:04:35.565Z,48.85
2022-09-06T18:07:55.588Z,49.08
2022-09-06T18:11:26.035Z,49.17
2022-09-06T18:15:15.769Z,49.45
2022-09-06T18:18:59.470Z,49.67
2022-09-06T18:22:09.910Z,49.68
2022-09-06T18:26:02.192Z,49.69
2022-09-06T18:29:36.764Z,49.52
2022-09-06T18:32:33.214Z,49.54
2022-09-06T18:36:17.350Z,49.44
2022-09-06T18:38:59.786Z,49.25
2022-09-06T18:42:23.675Z,49.50
2022-09-06T18:45:59.079Z,49.39
2022-09-06T18:49:43.269Z,49.53
2022-09-06T18:52:23.650Z,49.85
2022-09-06T18:55:50.888Z,50.06
2022-09-06T18:59:27.166Z,50.05
2022-09-06T19:02:19.783Z,50.30
2022-09-06T19:06:13.921Z,50.39
2022-09-06T19:09:31.315Z,50.85
2022-09-06T19:12:58.646Z,51.19
2022-09-06T19:16:30.335Z,51.36
2022-09-06T19:19:56.048Z,51.42
2022-09-06T19:22:33.045Z,51.75
2022-09-06T19:26:14.919Z,52.00
2022-09-06T19:29:19.949Z,52.56
2022-09-06T19:32:30.821Z,53.45
2022-09-06T19:36:12.338Z,53.78
2022-09-06T19:39:20.786Z,53.91
2022-09-06T19:42:25.169Z,54.17
2022-09-06T19:45:40.259Z,54.36
2022-09-06T19:49:13.592Z,54.72
2022-09-06T19:52:17.708Z,55.02
2022-09-06T19:55:10.933Z,55.43
2022-09-06T19:57:57.735Z,55.65
2022-09-06T20:00:46.584Z,55.90
2022-09-06T20:03:43.094Z,56.17
2022-09-06T20:06:15.054Z,56.36
2022-09-06T20:09:36.065Z,56.60
2022-09-06T20:12:12.973Z,56.58
2022-09-06T20:15:26.877Z,56.54
2022-09-06T20:18:29.473Z,56.66
2022-09-06T20:21:22.301Z,56.57
2022-09-06T20:24:08.668Z,56.49
2022-09-06T20:26:49.082Z,56.23
2022-09-06T20:29:40.592Z,56.10
2022-09-06T20:32:17.811Z,55.97
2022-09-06T20:35:46.725Z,56.26
2022-09-06T20:39:19.444Z,56.03
2022-09-06T20:42:11.768Z,55.85
2022-09-06T20:45:29.320Z,55.63
2022-09-06T20:48:44.424Z,55.66
2022-09-06T20:52:09.185Z,55.15
2022-09-06T20:55:39.240Z,54.85
2022-09-06T20:58:10.720Z,55.22
2022-09-06T21:01:22.887Z,55.42
2022-09-06T21:04:16.283Z,55.39
2022-09-06T21:07:03.590Z,55.16
2022-09-06T21:10:22.723Z,55.55
2022-09-06T21:13:44.993Z,55.18
2022-09-06T21:16:37.517Z,55.94
2022-09-06T21:20:26.551Z,56.41
2022-09-06T21:24:15.841Z,56.35
2022-09-06T21:27:47.558Z,56.49
2022-09-06T21:31:17.535Z,56.41
2022-09-06T21:34:52.468Z,56.46
2022-09-06T21:37:55.121Z,57.24
2022-09-06T21:41:23.817Z,57.64
2022-09-06T21:44:33.112Z,58.13
2022-09-06T21:47:26.469Z,58.10
2022-09-06T21:49:57.731Z,58.09
2022-09-06T21:52:32.562Z,58.36
2022-09-06T21:55:20.903Z,58.20
2022-09-06T21:58:16.460Z,58.28
2022-09-06T22:00:54.954Z,58.63
2022-09-06T22:04:23.872Z,58.15
2022-09-06T22:07:12.412Z,59.47
2022-09-06T22:09:56.175Z,59.77
2022-09-06T22:13:25.055Z,60.14
2022-09-06T22:16:56.825Z,60.41
2022-09-06T22:19:43.496Z,60.29
2022-09-06T22:23:17.961Z,60.25
2022-09-06T22:26:02.384Z,60.12
2022-09-06T22:29:03.397Z,60.08
2022-09-06T22:32:09.762Z,60.23
2022-09-06T22:35:16.796Z,61.45
2022-09-06T22:38:45.726Z,62.92
2022-09-06T22:41:33.280Z,64.00
2022-09-06T22:44:51.947Z,64.95
2022-09-06T22:47:46.669Z,66.03
2022-09-06T22:50:17.703Z,66.36
2022-09-06T22:53:27.364Z,65.73
2022-09-06T22:56:39.367Z,65.97
2022-09-06T22:59:31.641Z,67.11
2022-09-06T23:03:20.681Z,68.02
2022-09-06T23:07:09.563Z,68.51
2022-09-06T23:09:46.074Z,68.85
2022-09-06T23:13:35.264Z,69.39
2022-09-06T23:17:14.187Z,69.38
2022-09-06T23:21:03.160Z,69.52
2022-09-06T23:24:44.835Z,69.67
2022-09-06T23:28:27.716Z,69.91
2022-09-06T23:31:48.071Z,70.47
2022-09-06T23:34:32.969Z,70.61
2022-09-06T23:37:53.845Z,70.60
2022-09-06T23:41:31.447Z,70.32
2022-09-06T23:44:34.128Z,69.53
2022-09-06T23:47:55.237Z,69.30
2022-09-06T23:51:45.034Z,69.24
2022-09-06T23:55:26.809Z,69.23
2022-09-06T23:58:07.700Z,69.82
